San Miguel — WTE9527 — position and weather

sailwx.info

Track history (hours):
 
Tides and Currents Weather Stations Pressure Air Temp Water Temp Dewpoint Dewpoint Depression Visibility Wind Speed Wind Dir Waves Ship Positions

San Miguel

Owner: BUFFALO MARINE SERVICE INC, HOUSTON, TX. More information available from US FCC via Universal Licensing System and Coast Guard Vessel Documentation Center.

Last reported at 2018-May-27 21:30 UTC. Time now 2018-May-27 21:37 UTC.
Position N 29°44' W 095°12'.

Length 10 m; draft 2.5 m.

Type: Tug. MMSI: 366941840.

Date/timePositionNaut miles runAvg speedWind from/ knotsBaromVisibWave heightAir tempDewpointWater temp
2018-May-27 21:30N 29°44' W 095°12'1 1.0
2018-May-27 20:14N 29°45' W 095°11'2 5.1
2018-May-27 19:49N 29°44' W 095°09'2 0.1
2018-May-26 13:04N 29°46' W 095°07'0 0.0
2018-May-26 12:59N 29°46' W 095°07'1 0.2
2018-May-26 06:44N 29°45' W 095°06'5 0.4
2018-May-25 19:11N 29°43' W 095°01'1 5.0
2018-May-25 19:00N 29°42' W 095°01'3 5.3
2018-May-25 18:30N 29°40' W 094°59'3 5.9
2018-May-25 18:00N 29°38' W 094°58'3 6.0
2018-May-25 17:31N 29°35' W 094°56'3 5.9
2018-May-25 16:59N 29°32' W 094°54'15 1.1
2018-May-25 03:23N 29°19' W 094°49'0 0.1
2018-May-25 02:00N 29°19' W 094°49'2 4.5
2018-May-25 01:30N 29°20' W 094°47'3 6.4
2018-May-25 01:00N 29°23' W 094°48'4 6.1
2018-May-25 00:19N 29°26' W 094°50'2 6.0
2018-May-24 23:58N 29°28' W 094°51'3 5.9
2018-May-24 23:30N 29°31' W 094°53'3 5.6
2018-May-24 22:59N 29°33' W 094°55'3 5.3
2018-May-24 22:30N 29°35' W 094°56'3 5.1
2018-May-24 22:00N 29°38' W 094°58'2 5.0
2018-May-24 21:30N 29°40' W 094°59'2 4.9
2018-May-24 21:00N 29°42' W 095°00'6 1.5
2018-May-24 16:49N 29°45' W 095°06'0 0.0
2018-May-24 16:13N 29°45' W 095°06'0 0.0
2018-May-24 15:52N 29°45' W 095°06'1 0.1
2018-May-23 21:40N 29°46' W 095°07'0 0.0
2018-May-23 21:30N 29°46' W 095°07'0 0.0
2018-May-23 20:57N 29°46' W 095°07'0 0.0
2018-May-23 20:24N 29°46' W 095°07'1 0.2
2018-May-23 14:12N 29°44' W 095°07'5 5.1
2018-May-23 13:14N 29°44' W 095°12'0 0.0
2018-May-23 12:59N 29°44' W 095°12'0 0.0
2018-May-23 12:29N 29°44' W 095°12'0 0.0
2018-May-23 11:54N 29°44' W 095°12'0 0.0
2018-May-23 11:30N 29°44' W 095°12'0 0.0
2018-May-23 10:58N 29°44' W 095°12'0 0.0
2018-May-23 10:30N 29°44' W 095°12'0 0.0
2018-May-23 10:00N 29°44' W 095°12'0 0.0
2018-May-23 09:30N 29°44' W 095°12'0 0.0
2018-May-23 08:56N 29°44' W 095°12'0 0.0
2018-May-23 08:22N 29°44' W 095°12'0 0.0
2018-May-23 07:59N 29°44' W 095°12'0 0.0
2018-May-23 07:30N 29°44' W 095°12'0 0.0
2018-May-23 07:00N 29°44' W 095°12'0 0.0
2018-May-23 06:30N 29°44' W 095°12'0 0.0
2018-May-23 06:00N 29°44' W 095°12'0 0.0
2018-May-23 05:30N 29°44' W 095°12'0 0.0
2018-May-23 05:00N 29°44' W 095°12'0 0.0
2018-May-23 04:30N 29°44' W 095°12'0 0.0
2018-May-23 03:57N 29°44' W 095°12'0 0.0
2018-May-23 03:25N 29°44' W 095°12'7 0.6
2018-May-22 15:05N 29°45' W 095°04'1 5.9
2018-May-22 14:58N 29°44' W 095°03'3 5.0
2018-May-22 14:27N 29°43' W 095°01'2 5.2
2018-May-22 14:01N 29°41' W 094°59'3 5.6
2018-May-22 13:30N 29°39' W 094°58'3 5.9
2018-May-22 13:00N 29°36' W 094°57'2 4.9
2018-May-22 12:30N 29°34' W 094°55'3 6.3
2018-May-22 12:00N 29°31' W 094°53'6 5.8
2018-May-22 10:54N 29°26' W 094°50'2 5.7
2018-May-22 10:30N 29°23' W 094°49'3 5.0
2018-May-22 10:00N 29°21' W 094°47'2 4.4
2018-May-22 09:28N 29°21' W 094°45'1 0.1
2018-May-22 04:59N 29°21' W 094°44'0 0.0
2018-May-22 04:26N 29°21' W 094°44'0 0.0
2018-May-22 03:57N 29°21' W 094°44'0 0.0
2018-May-22 03:25N 29°21' W 094°44'0 0.0
2018-May-22 02:55N 29°21' W 094°44'0 0.0
2018-May-22 02:25N 29°21' W 094°44'0 0.0
2018-May-22 01:01N 29°21' W 094°44'4 2.9
2018-May-21 23:30N 29°23' W 094°49'4 6.2
2018-May-21 22:54N 29°26' W 094°50'2 5.8
2018-May-21 22:30N 29°28' W 094°51'3 5.6
2018-May-21 22:00N 29°31' W 094°53'3 5.3
2018-May-21 21:30N 29°33' W 094°55'3 5.3
2018-May-21 21:00N 29°35' W 094°56'3 5.6
2018-May-21 20:30N 29°38' W 094°58'3 5.6
2018-May-21 20:00N 29°40' W 094°59'8 0.6
2018-May-21 06:00N 29°45' W 095°06'0 0.0
2018-May-21 05:28N 29°45' W 095°06'0 0.0
2018-May-21 04:59N 29°45' W 095°06'0 0.0
2018-May-21 03:56N 29°45' W 095°06'0 0.0
2018-May-21 03:30N 29°45' W 095°06'1 1.2
2018-May-21 02:58N 29°44' W 095°07'6 5.7
2018-May-21 02:00N 29°44' W 095°13'1 2.6
2018-May-21 01:29N 29°43' W 095°14'0 0.0
2018-May-21 00:11N 29°43' W 095°14'0 0.0
2018-May-20 23:58N 29°43' W 095°14'0 0.0
2018-May-20 23:24N 29°43' W 095°14'0 0.0
2018-May-20 22:15N 29°43' W 095°14'0 0.0
2018-May-20 22:00N 29°43' W 095°14'0 0.0
2018-May-20 21:30N 29°43' W 095°14'0 0.0
2018-May-20 18:07N 29°43' W 095°14'0 0.0
2018-May-20 17:54N 29°43' W 095°14'11 1.8
2018-May-20 11:27N 29°43' W 095°01'2 5.4
2018-May-20 11:00N 29°41' W 094°59'2 5.0
2018-May-20 10:30N 29°39' W 094°58'3 5.2
2018-May-20 10:00N 29°36' W 094°57'3 5.5
2018-May-20 09:31N 29°34' W 094°55'3 5.4
2018-May-20 09:00N 29°32' W 094°54'11 4.8
2018-May-20 06:43N 29°22' W 094°48'1 3.8
2018-May-20 06:28N 29°21' W 094°47'2 3.9
2018-May-20 05:52N 29°19' W 094°47'2 2.2
2018-May-20 05:08N 29°21' W 094°47'1 4.9
2018-May-20 05:00N 29°21' W 094°47'3 5.4
2018-May-20 04:28N 29°22' W 094°50'2 4.9
2018-May-20 03:59N 29°23' W 094°53'3 2.5
2018-May-20 02:56N 29°22' W 094°50'3 6.8
2018-May-20 02:25N 29°20' W 094°47'1 0.1
2018-May-19 12:14N 29°19' W 094°47'0 0.0
2018-May-19 11:43N 29°19' W 094°47'0 0.0
2018-May-19 11:27N 29°19' W 094°47'0 0.0
2018-May-19 10:58N 29°19' W 094°47'0 0.0
2018-May-19 10:28N 29°19' W 094°47'0 0.0
2018-May-19 10:00N 29°19' W 094°47'0 0.0
2018-May-19 09:30N 29°19' W 094°47'0 0.0
2018-May-19 09:00N 29°19' W 094°47'0 0.0
2018-May-19 08:29N 29°19' W 094°47'0 0.0
2018-May-19 07:59N 29°19' W 094°47'0 0.0
2018-May-19 07:30N 29°19' W 094°47'0 0.0
2018-May-19 07:00N 29°19' W 094°47'0 0.0
2018-May-19 06:30N 29°19' W 094°47'0 0.0
2018-May-19 05:59N 29°19' W 094°47'0 0.0
2018-May-19 05:30N 29°19' W 094°47'0 0.0
2018-May-19 04:59N 29°19' W 094°47'0 0.0
2018-May-19 04:30N 29°19' W 094°47'0 0.0
2018-May-19 04:00N 29°19' W 094°47'0 0.0
2018-May-19 03:30N 29°19' W 094°47'0 0.0
2018-May-19 03:00N 29°19' W 094°47'0 0.0
2018-May-19 02:26N 29°19' W 094°47'0 0.0
2018-May-18 13:19N 29°19' W 094°47'0 0.0
2018-May-18 12:57N 29°19' W 094°47'0 0.0
2018-May-18 12:26N 29°19' W 094°47'0 0.2
2018-May-18 12:00N 29°19' W 094°47'0 0.1
2018-May-18 11:24N 29°19' W 094°47'0 0.0
2018-May-18 11:00N 29°19' W 094°47'0 0.0
2018-May-18 10:30N 29°19' W 094°47'0 0.0
2018-May-18 10:00N 29°19' W 094°47'0 0.0
2018-May-18 09:30N 29°19' W 094°47'0 0.0
2018-May-18 09:00N 29°19' W 094°47'0 0.0
2018-May-18 08:30N 29°19' W 094°47'0 0.0
2018-May-18 08:00N 29°19' W 094°47'0 0.0
2018-May-18 07:30N 29°19' W 094°47'0 0.0
2018-May-18 07:00N 29°19' W 094°47'0 0.0
2018-May-18 06:30N 29°19' W 094°47'0 0.0
2018-May-18 06:00N 29°19' W 094°47'0 0.0
2018-May-18 05:30N 29°19' W 094°47'0 0.0
2018-May-18 05:00N 29°19' W 094°47'0 0.0
2018-May-18 04:30N 29°19' W 094°47'0 0.0
2018-May-18 04:01N 29°19' W 094°47'0 0.0
2018-May-18 03:30N 29°19' W 094°47'0 0.0
2018-May-18 03:00N 29°19' W 094°47'0 0.0
2018-May-18 02:30N 29°19' W 094°47'0 0.0
2018-May-18 02:00N 29°19' W 094°47'0 0.0
2018-May-18 01:30N 29°19' W 094°47'0 0.0
2018-May-18 01:00N 29°19' W 094°47'0 0.0
2018-May-18 00:30N 29°19' W 094°47'0 0.0
2018-May-18 00:01N 29°19' W 094°47'0 0.0
2018-May-17 23:30N 29°19' W 094°47'0 0.0
2018-May-17 22:59N 29°19' W 094°47'0 0.0
2018-May-17 22:14N 29°19' W 094°47'0 0.0
2018-May-17 21:57N 29°19' W 094°47'  
Track history (hours):
 
Tides and Currents Weather Stations Pressure Air Temp Water Temp Dewpoint Dewpoint Depression Visibility Wind Speed Wind Dir Waves Ship Positions

San Miguel

Owner: BUFFALO MARINE SERVICE INC, HOUSTON, TX. More information available from US FCC via Universal Licensing System and Coast Guard Vessel Documentation Center.

Last reported at 2018-May-27 21:30 UTC. Time now 2018-May-27 21:37 UTC.
Position N 29°44' W 095°12'.

Length 10 m; draft 2.5 m.

Type: Tug. MMSI: 366941840.

Date/timePositionNaut miles runAvg speedWind from/ knotsBaromVisibWave heightAir tempDewpointWater temp
2018-May-27 21:30N 29°44' W 095°12'1 1.0
2018-May-27 20:14N 29°45' W 095°11'2 5.1
2018-May-27 19:49N 29°44' W 095°09'2 0.1
2018-May-26 13:04N 29°46' W 095°07'0 0.0
2018-May-26 12:59N 29°46' W 095°07'1 0.2
2018-May-26 06:44N 29°45' W 095°06'5 0.4
2018-May-25 19:11N 29°43' W 095°01'1 5.0
2018-May-25 19:00N 29°42' W 095°01'3 5.3
2018-May-25 18:30N 29°40' W 094°59'3 5.9
2018-May-25 18:00N 29°38' W 094°58'3 6.0
2018-May-25 17:31N 29°35' W 094°56'3 5.9
2018-May-25 16:59N 29°32' W 094°54'15 1.1
2018-May-25 03:23N 29°19' W 094°49'0 0.1
2018-May-25 02:00N 29°19' W 094°49'2 4.5
2018-May-25 01:30N 29°20' W 094°47'3 6.4
2018-May-25 01:00N 29°23' W 094°48'4 6.1
2018-May-25 00:19N 29°26' W 094°50'2 6.0
2018-May-24 23:58N 29°28' W 094°51'3 5.9
2018-May-24 23:30N 29°31' W 094°53'3 5.6
2018-May-24 22:59N 29°33' W 094°55'3 5.3
2018-May-24 22:30N 29°35' W 094°56'3 5.1
2018-May-24 22:00N 29°38' W 094°58'2 5.0
2018-May-24 21:30N 29°40' W 094°59'2 4.9
2018-May-24 21:00N 29°42' W 095°00'6 1.5
2018-May-24 16:49N 29°45' W 095°06'0 0.0
2018-May-24 16:13N 29°45' W 095°06'0 0.0
2018-May-24 15:52N 29°45' W 095°06'1 0.1
2018-May-23 21:40N 29°46' W 095°07'0 0.0
2018-May-23 21:30N 29°46' W 095°07'0 0.0
2018-May-23 20:57N 29°46' W 095°07'0 0.0
2018-May-23 20:24N 29°46' W 095°07'1 0.2
2018-May-23 14:12N 29°44' W 095°07'5 5.1
2018-May-23 13:14N 29°44' W 095°12'0 0.0
2018-May-23 12:59N 29°44' W 095°12'0 0.0
2018-May-23 12:29N 29°44' W 095°12'0 0.0
2018-May-23 11:54N 29°44' W 095°12'0 0.0
2018-May-23 11:30N 29°44' W 095°12'0 0.0
2018-May-23 10:58N 29°44' W 095°12'0 0.0
2018-May-23 10:30N 29°44' W 095°12'0 0.0
2018-May-23 10:00N 29°44' W 095°12'0 0.0
2018-May-23 09:30N 29°44' W 095°12'0 0.0
2018-May-23 08:56N 29°44' W 095°12'0 0.0
2018-May-23 08:22N 29°44' W 095°12'0 0.0
2018-May-23 07:59N 29°44' W 095°12'0 0.0
2018-May-23 07:30N 29°44' W 095°12'0 0.0
2018-May-23 07:00N 29°44' W 095°12'0 0.0
2018-May-23 06:30N 29°44' W 095°12'0 0.0
2018-May-23 06:00N 29°44' W 095°12'0 0.0
2018-May-23 05:30N 29°44' W 095°12'0 0.0
2018-May-23 05:00N 29°44' W 095°12'0 0.0
2018-May-23 04:30N 29°44' W 095°12'0 0.0
2018-May-23 03:57N 29°44' W 095°12'0 0.0
2018-May-23 03:25N 29°44' W 095°12'7 0.6
2018-May-22 15:05N 29°45' W 095°04'1 5.9
2018-May-22 14:58N 29°44' W 095°03'3 5.0
2018-May-22 14:27N 29°43' W 095°01'2 5.2
2018-May-22 14:01N 29°41' W 094°59'3 5.6
2018-May-22 13:30N 29°39' W 094°58'3 5.9
2018-May-22 13:00N 29°36' W 094°57'2 4.9
2018-May-22 12:30N 29°34' W 094°55'3 6.3
2018-May-22 12:00N 29°31' W 094°53'6 5.8
2018-May-22 10:54N 29°26' W 094°50'2 5.7
2018-May-22 10:30N 29°23' W 094°49'3 5.0
2018-May-22 10:00N 29°21' W 094°47'2 4.4
2018-May-22 09:28N 29°21' W 094°45'1 0.1
2018-May-22 04:59N 29°21' W 094°44'0 0.0
2018-May-22 04:26N 29°21' W 094°44'0 0.0
2018-May-22 03:57N 29°21' W 094°44'0 0.0
2018-May-22 03:25N 29°21' W 094°44'0 0.0
2018-May-22 02:55N 29°21' W 094°44'0 0.0
2018-May-22 02:25N 29°21' W 094°44'0 0.0
2018-May-22 01:01N 29°21' W 094°44'4 2.9
2018-May-21 23:30N 29°23' W 094°49'4 6.2
2018-May-21 22:54N 29°26' W 094°50'2 5.8
2018-May-21 22:30N 29°28' W 094°51'3 5.6
2018-May-21 22:00N 29°31' W 094°53'3 5.3
2018-May-21 21:30N 29°33' W 094°55'3 5.3
2018-May-21 21:00N 29°35' W 094°56'3 5.6
2018-May-21 20:30N 29°38' W 094°58'3 5.6
2018-May-21 20:00N 29°40' W 094°59'8 0.6
2018-May-21 06:00N 29°45' W 095°06'0 0.0
2018-May-21 05:28N 29°45' W 095°06'0 0.0
2018-May-21 04:59N 29°45' W 095°06'0 0.0
2018-May-21 03:56N 29°45' W 095°06'0 0.0
2018-May-21 03:30N 29°45' W 095°06'1 1.2
2018-May-21 02:58N 29°44' W 095°07'6 5.7
2018-May-21 02:00N 29°44' W 095°13'1 2.6
2018-May-21 01:29N 29°43' W 095°14'0 0.0
2018-May-21 00:11N 29°43' W 095°14'0 0.0
2018-May-20 23:58N 29°43' W 095°14'0 0.0
2018-May-20 23:24N 29°43' W 095°14'0 0.0
2018-May-20 22:15N 29°43' W 095°14'0 0.0
2018-May-20 22:00N 29°43' W 095°14'0 0.0
2018-May-20 21:30N 29°43' W 095°14'0 0.0
2018-May-20 18:07N 29°43' W 095°14'0 0.0
2018-May-20 17:54N 29°43' W 095°14'11 1.8
2018-May-20 11:27N 29°43' W 095°01'2 5.4
2018-May-20 11:00N 29°41' W 094°59'2 5.0
2018-May-20 10:30N 29°39' W 094°58'3 5.2
2018-May-20 10:00N 29°36' W 094°57'3 5.5
2018-May-20 09:31N 29°34' W 094°55'3 5.4
2018-May-20 09:00N 29°32' W 094°54'11 4.8
2018-May-20 06:43N 29°22' W 094°48'1 3.8
2018-May-20 06:28N 29°21' W 094°47'2 3.9
2018-May-20 05:52N 29°19' W 094°47'2 2.2
2018-May-20 05:08N 29°21' W 094°47'1 4.9
2018-May-20 05:00N 29°21' W 094°47'3 5.4
2018-May-20 04:28N 29°22' W 094°50'2 4.9
2018-May-20 03:59N 29°23' W 094°53'3 2.5
2018-May-20 02:56N 29°22' W 094°50'3 6.8
2018-May-20 02:25N 29°20' W 094°47'1 0.1
2018-May-19 12:14N 29°19' W 094°47'0 0.0
2018-May-19 11:43N 29°19' W 094°47'0 0.0
2018-May-19 11:27N 29°19' W 094°47'0 0.0
2018-May-19 10:58N 29°19' W 094°47'0 0.0
2018-May-19 10:28N 29°19' W 094°47'0 0.0
2018-May-19 10:00N 29°19' W 094°47'0 0.0
2018-May-19 09:30N 29°19' W 094°47'0 0.0
2018-May-19 09:00N 29°19' W 094°47'0 0.0
2018-May-19 08:29N 29°19' W 094°47'0 0.0
2018-May-19 07:59N 29°19' W 094°47'0 0.0
2018-May-19 07:30N 29°19' W 094°47'0 0.0
2018-May-19 07:00N 29°19' W 094°47'0 0.0
2018-May-19 06:30N 29°19' W 094°47'0 0.0
2018-May-19 05:59N 29°19' W 094°47'0 0.0
2018-May-19 05:30N 29°19' W 094°47'0 0.0
2018-May-19 04:59N 29°19' W 094°47'0 0.0
2018-May-19 04:30N 29°19' W 094°47'0 0.0
2018-May-19 04:00N 29°19' W 094°47'0 0.0
2018-May-19 03:30N 29°19' W 094°47'0 0.0
2018-May-19 03:00N 29°19' W 094°47'0 0.0
2018-May-19 02:26N 29°19' W 094°47'0 0.0
2018-May-18 13:19N 29°19' W 094°47'0 0.0
2018-May-18 12:57N 29°19' W 094°47'0 0.0
2018-May-18 12:26N 29°19' W 094°47'0 0.2
2018-May-18 12:00N 29°19' W 094°47'0 0.1
2018-May-18 11:24N 29°19' W 094°47'0 0.0
2018-May-18 11:00N 29°19' W 094°47'0 0.0
2018-May-18 10:30N 29°19' W 094°47'0 0.0
2018-May-18 10:00N 29°19' W 094°47'0 0.0
2018-May-18 09:30N 29°19' W 094°47'0 0.0
2018-May-18 09:00N 29°19' W 094°47'0 0.0
2018-May-18 08:30N 29°19' W 094°47'0 0.0
2018-May-18 08:00N 29°19' W 094°47'0 0.0
2018-May-18 07:30N 29°19' W 094°47'0 0.0
2018-May-18 07:00N 29°19' W 094°47'0 0.0
2018-May-18 06:30N 29°19' W 094°47'0 0.0
2018-May-18 06:00N 29°19' W 094°47'0 0.0
2018-May-18 05:30N 29°19' W 094°47'0 0.0
2018-May-18 05:00N 29°19' W 094°47'0 0.0
2018-May-18 04:30N 29°19' W 094°47'0 0.0
2018-May-18 04:01N 29°19' W 094°47'0 0.0
2018-May-18 03:30N 29°19' W 094°47'0 0.0
2018-May-18 03:00N 29°19' W 094°47'0 0.0
2018-May-18 02:30N 29°19' W 094°47'0 0.0
2018-May-18 02:00N 29°19' W 094°47'0 0.0
2018-May-18 01:30N 29°19' W 094°47'0 0.0
2018-May-18 01:00N 29°19' W 094°47'0 0.0
2018-May-18 00:30N 29°19' W 094°47'0 0.0
2018-May-18 00:01N 29°19' W 094°47'0 0.0
2018-May-17 23:30N 29°19' W 094°47'0 0.0
2018-May-17 22:59N 29°19' W 094°47'0 0.0
2018-May-17 22:14N 29°19' W 094°47'0 0.0
2018-May-17 21:57N 29°19' W 094°47'  

Dump ship's entire track history